sensor_id;sensor_type;location;lat;lon;timestamp;P1;durP1;ratioP1;P2;durP2;ratioP2
19291;SDS011;9779;51.756;7.450;2022-12-10T00:01:42;44.40;;;25.67;;
19291;SDS011;9779;51.756;7.450;2022-12-10T00:04:08;47.23;;;26.57;;
19291;SDS011;9779;51.756;7.450;2022-12-10T00:06:35;43.27;;;25.33;;
19291;SDS011;9779;51.756;7.450;2022-12-10T00:09:04;40.87;;;24.53;;
19291;SDS011;9779;51.756;7.450;2022-12-10T00:11:34;42.90;;;25.80;;
19291;SDS011;9779;51.756;7.450;2022-12-10T00:13:59;40.53;;;24.47;;
19291;SDS011;9779;51.756;7.450;2022-12-10T00:16:26;43.80;;;25.90;;
19291;SDS011;9779;51.756;7.450;2022-12-10T00:18:53;44.13;;;24.33;;
19291;SDS011;9779;51.756;7.450;2022-12-10T00:21:20;42.30;;;24.97;;
19291;SDS011;9779;51.756;7.450;2022-12-10T00:23:48;42.53;;;24.03;;
19291;SDS011;9779;51.756;7.450;2022-12-10T00:28:44;45.20;;;25.80;;
19291;SDS011;9779;51.756;7.450;2022-12-10T00:31:11;40.83;;;23.17;;
19291;SDS011;9779;51.756;7.450;2022-12-10T00:33:39;39.50;;;23.97;;
19291;SDS011;9779;51.756;7.450;2022-12-10T00:36:06;39.53;;;24.00;;
19291;SDS011;9779;51.756;7.450;2022-12-10T00:38:33;38.10;;;23.13;;
19291;SDS011;9779;51.756;7.450;2022-12-10T00:41:00;43.80;;;26.07;;
19291;SDS011;9779;51.756;7.450;2022-12-10T00:43:25;42.00;;;25.20;;
19291;SDS011;9779;51.756;7.450;2022-12-10T00:45:52;42.60;;;24.33;;
19291;SDS011;9779;51.756;7.450;2022-12-10T00:48:18;38.57;;;23.77;;
19291;SDS011;9779;51.756;7.450;2022-12-10T00:50:43;42.10;;;24.37;;
19291;SDS011;9779;51.756;7.450;2022-12-10T00:53:18;36.97;;;23.67;;
19291;SDS011;9779;51.756;7.450;2022-12-10T00:55:44;39.43;;;24.17;;
19291;SDS011;9779;51.756;7.450;2022-12-10T00:58:09;38.00;;;25.03;;
19291;SDS011;9779;51.756;7.450;2022-12-10T01:00:35;37.07;;;24.33;;
19291;SDS011;9779;51.756;7.450;2022-12-10T01:03:00;39.63;;;23.40;;
19291;SDS011;9779;51.756;7.450;2022-12-10T01:05:26;34.63;;;22.13;;
19291;SDS011;9779;51.756;7.450;2022-12-10T01:07:51;46.00;;;24.37;;
19291;SDS011;9779;51.756;7.450;2022-12-10T01:10:18;35.00;;;21.73;;
19291;SDS011;9779;51.756;7.450;2022-12-10T01:12:44;36.83;;;24.00;;
19291;SDS011;9779;51.756;7.450;2022-12-10T01:15:10;36.67;;;22.57;;
19291;SDS011;9779;51.756;7.450;2022-12-10T01:17:36;32.00;;;21.30;;
19291;SDS011;9779;51.756;7.450;2022-12-10T01:20:02;35.67;;;22.20;;
19291;SDS011;9779;51.756;7.450;2022-12-10T01:22:28;34.07;;;20.77;;
19291;SDS011;9779;51.756;7.450;2022-12-10T01:24:54;33.97;;;21.73;;
19291;SDS011;9779;51.756;7.450;2022-12-10T01:27:19;33.27;;;20.53;;
19291;SDS011;9779;51.756;7.450;2022-12-10T01:29:45;31.13;;;21.60;;
19291;SDS011;9779;51.756;7.450;2022-12-10T01:32:11;40.87;;;22.63;;
19291;SDS011;9779;51.756;7.450;2022-12-10T01:34:36;36.47;;;22.07;;
19291;SDS011;9779;51.756;7.450;2022-12-10T01:37:02;32.87;;;20.87;;
19291;SDS011;9779;51.756;7.450;2022-12-10T01:39:27;33.80;;;21.63;;
19291;SDS011;9779;51.756;7.450;2022-12-10T01:41:54;37.87;;;22.37;;
19291;SDS011;9779;51.756;7.450;2022-12-10T01:46:48;34.20;;;21.80;;
19291;SDS011;9779;51.756;7.450;2022-12-10T01:49:17;32.20;;;21.77;;
19291;SDS011;9779;51.756;7.450;2022-12-10T01:52:04;28.77;;;20.33;;
19291;SDS011;9779;51.756;7.450;2022-12-10T01:54:33;28.07;;;20.90;;
19291;SDS011;9779;51.756;7.450;2022-12-10T01:57:34;27.93;;;19.80;;
19291;SDS011;9779;51.756;7.450;2022-12-10T02:00:04;32.57;;;19.97;;
19291;SDS011;9779;51.756;7.450;2022-12-10T02:02:41;32.93;;;19.50;;
19291;SDS011;9779;51.756;7.450;2022-12-10T02:05:25;32.60;;;20.77;;
19291;SDS011;9779;51.756;7.450;2022-12-10T02:08:18;28.47;;;20.57;;
19291;SDS011;9779;51.756;7.450;2022-12-10T02:13:53;32.03;;;20.03;;
19291;SDS011;9779;51.756;7.450;2022-12-10T02:16:31;30.20;;;19.67;;
19291;SDS011;9779;51.756;7.450;2022-12-10T02:19:13;28.47;;;19.93;;
19291;SDS011;9779;51.756;7.450;2022-12-10T02:21:41;31.73;;;21.53;;
19291;SDS011;9779;51.756;7.450;2022-12-10T02:24:10;28.87;;;19.97;;
19291;SDS011;9779;51.756;7.450;2022-12-10T02:26:46;30.07;;;20.27;;
19291;SDS011;9779;51.756;7.450;2022-12-10T02:29:20;26.47;;;18.23;;
19291;SDS011;9779;51.756;7.450;2022-12-10T02:31:48;25.50;;;18.97;;
19291;SDS011;9779;51.756;7.450;2022-12-10T02:34:18;31.00;;;17.30;;
19291;SDS011;9779;51.756;7.450;2022-12-10T02:36:46;22.67;;;16.73;;
19291;SDS011;9779;51.756;7.450;2022-12-10T02:39:16;23.30;;;17.67;;
19291;SDS011;9779;51.756;7.450;2022-12-10T02:41:52;26.33;;;17.07;;
19291;SDS011;9779;51.756;7.450;2022-12-10T02:44:19;28.37;;;18.77;;
19291;SDS011;9779;51.756;7.450;2022-12-10T02:46:50;25.93;;;17.70;;
19291;SDS011;9779;51.756;7.450;2022-12-10T02:49:19;28.17;;;18.80;;
19291;SDS011;9779;51.756;7.450;2022-12-10T02:51:46;25.77;;;19.47;;
19291;SDS011;9779;51.756;7.450;2022-12-10T02:57:00;24.60;;;18.07;;
19291;SDS011;9779;51.756;7.450;2022-12-10T03:07:51;23.50;;;17.70;;
19291;SDS011;9779;51.756;7.450;2022-12-10T03:13:14;29.57;;;19.07;;
19291;SDS011;9779;51.756;7.450;2022-12-10T03:15:41;25.47;;;18.87;;
19291;SDS011;9779;51.756;7.450;2022-12-10T03:18:08;21.30;;;17.20;;
19291;SDS011;9779;51.756;7.450;2022-12-10T03:20:39;26.90;;;18.30;;
19291;SDS011;9779;51.756;7.450;2022-12-10T03:23:10;29.33;;;18.27;;
19291;SDS011;9779;51.756;7.450;2022-12-10T03:25:40;28.37;;;18.93;;
19291;SDS011;9779;51.756;7.450;2022-12-10T03:28:06;26.37;;;19.03;;
19291;SDS011;9779;51.756;7.450;2022-12-10T03:30:33;26.33;;;19.87;;
19291;SDS011;9779;51.756;7.450;2022-12-10T03:33:00;26.23;;;18.73;;
19291;SDS011;9779;51.756;7.450;2022-12-10T03:35:27;22.03;;;17.87;;
19291;SDS011;9779;51.756;7.450;2022-12-10T03:37:52;26.33;;;19.80;;
19291;SDS011;9779;51.756;7.450;2022-12-10T03:40:20;23.40;;;18.13;;
19291;SDS011;9779;51.756;7.450;2022-12-10T03:42:47;23.20;;;17.63;;
19291;SDS011;9779;51.756;7.450;2022-12-10T03:45:13;31.73;;;20.10;;
19291;SDS011;9779;51.756;7.450;2022-12-10T03:47:40;24.83;;;18.43;;
19291;SDS011;9779;51.756;7.450;2022-12-10T03:50:06;28.40;;;20.43;;
19291;SDS011;9779;51.756;7.450;2022-12-10T03:52:32;24.77;;;18.80;;
19291;SDS011;9779;51.756;7.450;2022-12-10T03:54:57;24.47;;;18.07;;
19291;SDS011;9779;51.756;7.450;2022-12-10T03:57:23;26.43;;;18.47;;
19291;SDS011;9779;51.756;7.450;2022-12-10T03:59:49;23.33;;;16.83;;
19291;SDS011;9779;51.756;7.450;2022-12-10T04:02:15;20.97;;;17.77;;
19291;SDS011;9779;51.756;7.450;2022-12-10T04:04:41;20.77;;;16.43;;
19291;SDS011;9779;51.756;7.450;2022-12-10T04:07:06;21.37;;;17.03;;
19291;SDS011;9779;51.756;7.450;2022-12-10T04:09:32;25.83;;;18.70;;
19291;SDS011;9779;51.756;7.450;2022-12-10T04:11:58;28.77;;;18.10;;
19291;SDS011;9779;51.756;7.450;2022-12-10T04:14:24;19.80;;;17.03;;
19291;SDS011;9779;51.756;7.450;2022-12-10T04:17:10;25.13;;;17.73;;
19291;SDS011;9779;51.756;7.450;2022-12-10T04:19:36;22.60;;;17.20;;
19291;SDS011;9779;51.756;7.450;2022-12-10T04:22:02;24.20;;;18.50;;
19291;SDS011;9779;51.756;7.450;2022-12-10T04:24:46;23.43;;;17.47;;
19291;SDS011;9779;51.756;7.450;2022-12-10T04:27:51;21.13;;;17.67;;
19291;SDS011;9779;51.756;7.450;2022-12-10T04:30:16;24.50;;;18.33;;
19291;SDS011;9779;51.756;7.450;2022-12-10T04:32:42;33.13;;;21.53;;
19291;SDS011;9779;51.756;7.450;2022-12-10T04:35:08;22.90;;;18.70;;
19291;SDS011;9779;51.756;7.450;2022-12-10T04:37:33;28.57;;;20.57;;
19291;SDS011;9779;51.756;7.450;2022-12-10T04:39:59;28.80;;;20.27;;
19291;SDS011;9779;51.756;7.450;2022-12-10T04:42:25;28.57;;;19.73;;
19291;SDS011;9779;51.756;7.450;2022-12-10T04:44:51;35.33;;;20.50;;
19291;SDS011;9779;51.756;7.450;2022-12-10T04:47:16;26.50;;;19.83;;
19291;SDS011;9779;51.756;7.450;2022-12-10T04:49:42;28.80;;;19.07;;
19291;SDS011;9779;51.756;7.450;2022-12-10T04:52:09;25.37;;;20.17;;
19291;SDS011;9779;51.756;7.450;2022-12-10T04:54:37;26.27;;;19.93;;
19291;SDS011;9779;51.756;7.450;2022-12-10T04:57:02;27.20;;;20.50;;
19291;SDS011;9779;51.756;7.450;2022-12-10T04:59:28;24.37;;;18.57;;
19291;SDS011;9779;51.756;7.450;2022-12-10T05:01:53;26.40;;;17.73;;
19291;SDS011;9779;51.756;7.450;2022-12-10T05:04:19;27.17;;;19.50;;
19291;SDS011;9779;51.756;7.450;2022-12-10T05:06:45;30.93;;;21.07;;
19291;SDS011;9779;51.756;7.450;2022-12-10T05:09:14;26.53;;;20.77;;
19291;SDS011;9779;51.756;7.450;2022-12-10T05:11:39;30.30;;;23.33;;
19291;SDS011;9779;51.756;7.450;2022-12-10T05:14:05;28.27;;;21.13;;
19291;SDS011;9779;51.756;7.450;2022-12-10T05:16:32;30.03;;;22.50;;
19291;SDS011;9779;51.756;7.450;2022-12-10T05:18:59;30.17;;;21.47;;
19291;SDS011;9779;51.756;7.450;2022-12-10T05:21:26;29.83;;;21.53;;
19291;SDS011;9779;51.756;7.450;2022-12-10T05:24:12;33.07;;;21.30;;
19291;SDS011;9779;51.756;7.450;2022-12-10T05:26:38;31.70;;;22.70;;
19291;SDS011;9779;51.756;7.450;2022-12-10T05:29:04;36.80;;;23.97;;
19291;SDS011;9779;51.756;7.450;2022-12-10T05:31:30;42.97;;;25.30;;
19291;SDS011;9779;51.756;7.450;2022-12-10T05:33:56;45.53;;;27.30;;
19291;SDS011;9779;51.756;7.450;2022-12-10T05:36:23;62.07;;;31.73;;
19291;SDS011;9779;51.756;7.450;2022-12-10T05:38:51;54.47;;;30.50;;
19291;SDS011;9779;51.756;7.450;2022-12-10T05:41:19;57.63;;;33.67;;
19291;SDS011;9779;51.756;7.450;2022-12-10T05:43:46;68.13;;;34.63;;
19291;SDS011;9779;51.756;7.450;2022-12-10T05:46:19;69.33;;;34.50;;
19291;SDS011;9779;51.756;7.450;2022-12-10T05:48:47;71.80;;;36.60;;
19291;SDS011;9779;51.756;7.450;2022-12-10T05:51:14;64.60;;;35.63;;
19291;SDS011;9779;51.756;7.450;2022-12-10T05:53:42;78.47;;;37.23;;
19291;SDS011;9779;51.756;7.450;2022-12-10T05:56:09;70.83;;;36.80;;
19291;SDS011;9779;51.756;7.450;2022-12-10T05:58:40;66.53;;;36.33;;
19291;SDS011;9779;51.756;7.450;2022-12-10T06:01:08;65.10;;;34.93;;
19291;SDS011;9779;51.756;7.450;2022-12-10T06:03:36;61.37;;;33.53;;
19291;SDS011;9779;51.756;7.450;2022-12-10T06:06:01;64.73;;;33.53;;
19291;SDS011;9779;51.756;7.450;2022-12-10T06:08:27;66.40;;;34.63;;
19291;SDS011;9779;51.756;7.450;2022-12-10T06:10:53;68.57;;;35.20;;
19291;SDS011;9779;51.756;7.450;2022-12-10T06:13:19;71.53;;;34.50;;
19291;SDS011;9779;51.756;7.450;2022-12-10T06:15:45;60.40;;;32.00;;
19291;SDS011;9779;51.756;7.450;2022-12-10T06:18:11;60.37;;;33.80;;
19291;SDS011;9779;51.756;7.450;2022-12-10T06:20:39;59.93;;;32.93;;
19291;SDS011;9779;51.756;7.450;2022-12-10T06:23:05;68.00;;;35.00;;
19291;SDS011;9779;51.756;7.450;2022-12-10T06:25:31;63.87;;;32.20;;
19291;SDS011;9779;51.756;7.450;2022-12-10T06:27:57;68.47;;;35.20;;
19291;SDS011;9779;51.756;7.450;2022-12-10T06:30:23;61.80;;;34.13;;
19291;SDS011;9779;51.756;7.450;2022-12-10T06:32:48;61.67;;;32.77;;
19291;SDS011;9779;51.756;7.450;2022-12-10T06:35:14;63.33;;;34.30;;
19291;SDS011;9779;51.756;7.450;2022-12-10T06:37:40;66.93;;;33.63;;
19291;SDS011;9779;51.756;7.450;2022-12-10T06:40:05;59.10;;;32.30;;
19291;SDS011;9779;51.756;7.450;2022-12-10T06:42:31;59.13;;;34.90;;
19291;SDS011;9779;51.756;7.450;2022-12-10T06:44:57;53.33;;;30.93;;
19291;SDS011;9779;51.756;7.450;2022-12-10T06:47:22;61.03;;;33.40;;
19291;SDS011;9779;51.756;7.450;2022-12-10T06:49:48;62.73;;;33.40;;
19291;SDS011;9779;51.756;7.450;2022-12-10T06:52:14;62.60;;;33.00;;
19291;SDS011;9779;51.756;7.450;2022-12-10T06:54:40;64.10;;;36.17;;
19291;SDS011;9779;51.756;7.450;2022-12-10T06:57:05;57.70;;;33.83;;
19291;SDS011;9779;51.756;7.450;2022-12-10T06:59:31;54.87;;;31.37;;
19291;SDS011;9779;51.756;7.450;2022-12-10T07:01:56;60.97;;;33.57;;
19291;SDS011;9779;51.756;7.450;2022-12-10T07:04:22;57.37;;;32.27;;
19291;SDS011;9779;51.756;7.450;2022-12-10T07:06:48;53.67;;;30.90;;
19291;SDS011;9779;51.756;7.450;2022-12-10T07:09:13;58.13;;;30.90;;
19291;SDS011;9779;51.756;7.450;2022-12-10T07:11:39;54.73;;;29.83;;
19291;SDS011;9779;51.756;7.450;2022-12-10T07:14:04;52.67;;;30.47;;
19291;SDS011;9779;51.756;7.450;2022-12-10T07:16:30;54.60;;;30.87;;
19291;SDS011;9779;51.756;7.450;2022-12-10T07:18:58;51.87;;;29.87;;
19291;SDS011;9779;51.756;7.450;2022-12-10T07:21:25;49.43;;;29.03;;
19291;SDS011;9779;51.756;7.450;2022-12-10T07:23:57;57.43;;;30.60;;
19291;SDS011;9779;51.756;7.450;2022-12-10T07:26:25;58.37;;;32.37;;
19291;SDS011;9779;51.756;7.450;2022-12-10T07:28:53;50.67;;;28.13;;
19291;SDS011;9779;51.756;7.450;2022-12-10T07:31:18;56.03;;;31.53;;
19291;SDS011;9779;51.756;7.450;2022-12-10T07:33:44;56.43;;;30.87;;
19291;SDS011;9779;51.756;7.450;2022-12-10T07:36:11;52.90;;;30.03;;
19291;SDS011;9779;51.756;7.450;2022-12-10T07:38:37;57.47;;;31.33;;
19291;SDS011;9779;51.756;7.450;2022-12-10T07:41:07;54.73;;;31.87;;
19291;SDS011;9779;51.756;7.450;2022-12-10T07:43:36;52.67;;;29.00;;
19291;SDS011;9779;51.756;7.450;2022-12-10T07:46:10;56.40;;;30.40;;
19291;SDS011;9779;51.756;7.450;2022-12-10T07:48:38;60.47;;;30.30;;
19291;SDS011;9779;51.756;7.450;2022-12-10T07:51:06;49.23;;;29.37;;
19291;SDS011;9779;51.756;7.450;2022-12-10T07:53:32;53.70;;;31.23;;
19291;SDS011;9779;51.756;7.450;2022-12-10T07:55:58;45.33;;;27.77;;
19291;SDS011;9779;51.756;7.450;2022-12-10T07:58:24;54.53;;;30.13;;
19291;SDS011;9779;51.756;7.450;2022-12-10T08:00:49;54.00;;;29.30;;
19291;SDS011;9779;51.756;7.450;2022-12-10T08:03:15;53.60;;;29.63;;
19291;SDS011;9779;51.756;7.450;2022-12-10T08:05:41;56.43;;;30.87;;
19291;SDS011;9779;51.756;7.450;2022-12-10T08:08:07;78.93;;;41.47;;
19291;SDS011;9779;51.756;7.450;2022-12-10T08:10:35;64.37;;;32.83;;
19291;SDS011;9779;51.756;7.450;2022-12-10T08:13:03;63.57;;;33.07;;
19291;SDS011;9779;51.756;7.450;2022-12-10T08:15:29;57.47;;;30.83;;
19291;SDS011;9779;51.756;7.450;2022-12-10T08:17:55;63.10;;;33.13;;
19291;SDS011;9779;51.756;7.450;2022-12-10T08:20:22;56.80;;;31.40;;
19291;SDS011;9779;51.756;7.450;2022-12-10T08:22:48;64.33;;;31.37;;
19291;SDS011;9779;51.756;7.450;2022-12-10T08:25:14;60.57;;;31.33;;
19291;SDS011;9779;51.756;7.450;2022-12-10T08:27:40;61.87;;;32.67;;
19291;SDS011;9779;51.756;7.450;2022-12-10T08:30:06;61.97;;;31.17;;
19291;SDS011;9779;51.756;7.450;2022-12-10T08:32:33;62.83;;;33.57;;
19291;SDS011;9779;51.756;7.450;2022-12-10T08:34:58;64.27;;;33.13;;
19291;SDS011;9779;51.756;7.450;2022-12-10T08:37:24;66.73;;;32.40;;
19291;SDS011;9779;51.756;7.450;2022-12-10T08:39:49;63.40;;;31.00;;
19291;SDS011;9779;51.756;7.450;2022-12-10T08:42:15;60.30;;;29.97;;
19291;SDS011;9779;51.756;7.450;2022-12-10T08:44:40;56.63;;;29.80;;
19291;SDS011;9779;51.756;7.450;2022-12-10T08:47:06;56.97;;;28.90;;
19291;SDS011;9779;51.756;7.450;2022-12-10T08:49:32;49.53;;;28.53;;
19291;SDS011;9779;51.756;7.450;2022-12-10T08:51:57;49.73;;;27.80;;
19291;SDS011;9779;51.756;7.450;2022-12-10T08:54:23;45.70;;;27.63;;
19291;SDS011;9779;51.756;7.450;2022-12-10T08:56:48;48.03;;;27.80;;
19291;SDS011;9779;51.756;7.450;2022-12-10T08:59:14;49.20;;;27.90;;
19291;SDS011;9779;51.756;7.450;2022-12-10T09:01:39;44.20;;;27.27;;
19291;SDS011;9779;51.756;7.450;2022-12-10T09:04:05;41.23;;;25.50;;
19291;SDS011;9779;51.756;7.450;2022-12-10T09:06:31;43.73;;;24.87;;
19291;SDS011;9779;51.756;7.450;2022-12-10T09:08:56;46.47;;;26.50;;
19291;SDS011;9779;51.756;7.450;2022-12-10T09:11:23;38.93;;;24.43;;
19291;SDS011;9779;51.756;7.450;2022-12-10T09:13:57;39.70;;;25.10;;
19291;SDS011;9779;51.756;7.450;2022-12-10T09:16:29;39.30;;;25.93;;
19291;SDS011;9779;51.756;7.450;2022-12-10T09:18:57;43.13;;;24.73;;
19291;SDS011;9779;51.756;7.450;2022-12-10T09:21:23;40.37;;;25.27;;
19291;SDS011;9779;51.756;7.450;2022-12-10T09:23:49;42.93;;;25.87;;
19291;SDS011;9779;51.756;7.450;2022-12-10T09:26:16;43.60;;;25.43;;
19291;SDS011;9779;51.756;7.450;2022-12-10T09:28:43;42.40;;;25.17;;
19291;SDS011;9779;51.756;7.450;2022-12-10T09:31:09;43.93;;;24.13;;
19291;SDS011;9779;51.756;7.450;2022-12-10T09:33:35;41.80;;;24.63;;
19291;SDS011;9779;51.756;7.450;2022-12-10T09:36:03;40.10;;;24.90;;
19291;SDS011;9779;51.756;7.450;2022-12-10T09:38:31;35.70;;;23.60;;
19291;SDS011;9779;51.756;7.450;2022-12-10T09:41:03;37.93;;;24.27;;
19291;SDS011;9779;51.756;7.450;2022-12-10T09:46:54;34.87;;;22.27;;
19291;SDS011;9779;51.756;7.450;2022-12-10T09:49:24;34.50;;;21.27;;
19291;SDS011;9779;51.756;7.450;2022-12-10T09:52:11;35.90;;;22.00;;
19291;SDS011;9779;51.756;7.450;2022-12-10T09:54:46;36.83;;;23.30;;
19291;SDS011;9779;51.756;7.450;2022-12-10T09:57:31;33.03;;;21.77;;
19291;SDS011;9779;51.756;7.450;2022-12-10T10:00:02;37.13;;;23.83;;
19291;SDS011;9779;51.756;7.450;2022-12-10T10:02:46;40.57;;;24.13;;
19291;SDS011;9779;51.756;7.450;2022-12-10T10:05:16;36.50;;;21.30;;
19291;SDS011;9779;51.756;7.450;2022-12-10T10:07:48;46.97;;;28.73;;
19291;SDS011;9779;51.756;7.450;2022-12-10T10:13:12;40.83;;;26.27;;
19291;SDS011;9779;51.756;7.450;2022-12-10T10:15:40;47.20;;;27.80;;
19291;SDS011;9779;51.756;7.450;2022-12-10T10:18:13;47.93;;;28.00;;
19291;SDS011;9779;51.756;7.450;2022-12-10T10:20:48;42.97;;;25.40;;
19291;SDS011;9779;51.756;7.450;2022-12-10T10:23:15;45.67;;;27.60;;
19291;SDS011;9779;51.756;7.450;2022-12-10T10:25:41;47.07;;;26.57;;
19291;SDS011;9779;51.756;7.450;2022-12-10T10:28:16;51.27;;;28.97;;
19291;SDS011;9779;51.756;7.450;2022-12-10T10:30:44;49.20;;;28.60;;
19291;SDS011;9779;51.756;7.450;2022-12-10T10:33:10;55.10;;;28.93;;
19291;SDS011;9779;51.756;7.450;2022-12-10T10:35:56;62.03;;;30.40;;
19291;SDS011;9779;51.756;7.450;2022-12-10T10:38:25;55.03;;;30.03;;
19291;SDS011;9779;51.756;7.450;2022-12-10T10:40:53;52.67;;;29.30;;
19291;SDS011;9779;51.756;7.450;2022-12-10T10:43:31;56.97;;;31.33;;
19291;SDS011;9779;51.756;7.450;2022-12-10T10:46:02;57.93;;;30.40;;
19291;SDS011;9779;51.756;7.450;2022-12-10T10:48:31;56.80;;;30.67;;
19291;SDS011;9779;51.756;7.450;2022-12-10T10:53:47;55.13;;;29.23;;
19291;SDS011;9779;51.756;7.450;2022-12-10T11:01:24;59.43;;;29.73;;
19291;SDS011;9779;51.756;7.450;2022-12-10T11:03:55;55.57;;;30.07;;
19291;SDS011;9779;51.756;7.450;2022-12-10T11:06:23;60.50;;;31.07;;
19291;SDS011;9779;51.756;7.450;2022-12-10T11:08:49;60.80;;;31.97;;
19291;SDS011;9779;51.756;7.450;2022-12-10T11:11:20;60.87;;;31.10;;
19291;SDS011;9779;51.756;7.450;2022-12-10T11:13:50;64.23;;;31.33;;
19291;SDS011;9779;51.756;7.450;2022-12-10T11:16:20;53.57;;;28.37;;
19291;SDS011;9779;51.756;7.450;2022-12-10T11:18:58;54.13;;;28.20;;
19291;SDS011;9779;51.756;7.450;2022-12-10T11:21:33;57.37;;;29.30;;
19291;SDS011;9779;51.756;7.450;2022-12-10T11:24:02;49.40;;;27.47;;
19291;SDS011;9779;51.756;7.450;2022-12-10T11:26:38;51.30;;;27.83;;
19291;SDS011;9779;51.756;7.450;2022-12-10T11:46:00;47.83;;;26.30;;
19291;SDS011;9779;51.756;7.450;2022-12-10T11:48:43;41.53;;;26.20;;
19291;SDS011;9779;51.756;7.450;2022-12-10T11:51:17;55.50;;;28.73;;
19291;SDS011;9779;51.756;7.450;2022-12-10T11:54:05;47.73;;;26.37;;
19291;SDS011;9779;51.756;7.450;2022-12-10T11:56:58;51.20;;;27.60;;
19291;SDS011;9779;51.756;7.450;2022-12-10T12:05:19;47.50;;;27.23;;
19291;SDS011;9779;51.756;7.450;2022-12-10T12:08:12;46.70;;;28.00;;
19291;SDS011;9779;51.756;7.450;2022-12-10T12:13:23;46.00;;;27.30;;
19291;SDS011;9779;51.756;7.450;2022-12-10T12:18:51;50.40;;;28.77;;
19291;SDS011;9779;51.756;7.450;2022-12-10T12:21:18;48.77;;;28.47;;
19291;SDS011;9779;51.756;7.450;2022-12-10T12:26:46;45.07;;;25.63;;
19291;SDS011;9779;51.756;7.450;2022-12-10T12:29:32;46.80;;;26.17;;
19291;SDS011;9779;51.756;7.450;2022-12-10T12:32:10;61.00;;;29.17;;
19291;SDS011;9779;51.756;7.450;2022-12-10T12:37:28;46.90;;;28.27;;
19291;SDS011;9779;51.756;7.450;2022-12-10T12:40:14;50.20;;;29.27;;
19291;SDS011;9779;51.756;7.450;2022-12-10T12:42:55;46.00;;;26.43;;
19291;SDS011;9779;51.756;7.450;2022-12-10T12:48:14;47.83;;;27.37;;
19291;SDS011;9779;51.756;7.450;2022-12-10T12:51:00;51.70;;;27.60;;
19291;SDS011;9779;51.756;7.450;2022-12-10T12:53:30;47.03;;;26.90;;
19291;SDS011;9779;51.756;7.450;2022-12-10T12:56:02;46.30;;;26.50;;
19291;SDS011;9779;51.756;7.450;2022-12-10T12:58:31;49.47;;;28.07;;
19291;SDS011;9779;51.756;7.450;2022-12-10T13:03:52;44.90;;;27.47;;
19291;SDS011;9779;51.756;7.450;2022-12-10T13:06:27;46.23;;;26.60;;
19291;SDS011;9779;51.756;7.450;2022-12-10T13:16:45;54.07;;;29.33;;
19291;SDS011;9779;51.756;7.450;2022-12-10T13:21:56;51.03;;;30.20;;
19291;SDS011;9779;51.756;7.450;2022-12-10T13:27:28;50.17;;;29.30;;
19291;SDS011;9779;51.756;7.450;2022-12-10T13:30:01;54.67;;;30.60;;
19291;SDS011;9779;51.756;7.450;2022-12-10T13:42:56;61.03;;;31.70;;
19291;SDS011;9779;51.756;7.450;2022-12-10T13:45:42;61.97;;;33.10;;
19291;SDS011;9779;51.756;7.450;2022-12-10T13:50:48;74.57;;;39.43;;
19291;SDS011;9779;51.756;7.450;2022-12-10T13:53:35;78.73;;;41.80;;
19291;SDS011;9779;51.756;7.450;2022-12-10T13:56:25;80.83;;;42.47;;
19291;SDS011;9779;51.756;7.450;2022-12-10T14:06:58;70.33;;;33.93;;
19291;SDS011;9779;51.756;7.450;2022-12-10T14:09:25;69.03;;;36.80;;
19291;SDS011;9779;51.756;7.450;2022-12-10T14:11:58;63.87;;;33.53;;
19291;SDS011;9779;51.756;7.450;2022-12-10T14:14:35;70.03;;;35.10;;
19291;SDS011;9779;51.756;7.450;2022-12-10T14:17:09;65.07;;;35.27;;
19291;SDS011;9779;51.756;7.450;2022-12-10T14:19:42;70.60;;;36.57;;
19291;SDS011;9779;51.756;7.450;2022-12-10T14:22:17;74.70;;;37.10;;
19291;SDS011;9779;51.756;7.450;2022-12-10T14:24:49;86.37;;;39.93;;
19291;SDS011;9779;51.756;7.450;2022-12-10T14:27:17;80.63;;;39.20;;
19291;SDS011;9779;51.756;7.450;2022-12-10T14:29:49;74.63;;;37.67;;
19291;SDS011;9779;51.756;7.450;2022-12-10T14:32:18;70.97;;;36.53;;
19291;SDS011;9779;51.756;7.450;2022-12-10T14:34:52;123.80;;;55.23;;
19291;SDS011;9779;51.756;7.450;2022-12-10T14:37:23;98.47;;;47.20;;
19291;SDS011;9779;51.756;7.450;2022-12-10T14:39:52;71.27;;;37.27;;
19291;SDS011;9779;51.756;7.450;2022-12-10T14:42:19;111.60;;;53.00;;
19291;SDS011;9779;51.756;7.450;2022-12-10T14:44:45;84.53;;;39.27;;
19291;SDS011;9779;51.756;7.450;2022-12-10T14:47:16;92.37;;;46.17;;
19291;SDS011;9779;51.756;7.450;2022-12-10T14:49:45;79.97;;;40.83;;
19291;SDS011;9779;51.756;7.450;2022-12-10T14:52:13;76.40;;;38.50;;
19291;SDS011;9779;51.756;7.450;2022-12-10T14:54:42;84.70;;;41.00;;
19291;SDS011;9779;51.756;7.450;2022-12-10T14:57:12;79.73;;;39.73;;
19291;SDS011;9779;51.756;7.450;2022-12-10T15:02:33;94.80;;;47.47;;
19291;SDS011;9779;51.756;7.450;2022-12-10T15:05:01;87.47;;;39.80;;
19291;SDS011;9779;51.756;7.450;2022-12-10T15:07:31;74.63;;;35.13;;
19291;SDS011;9779;51.756;7.450;2022-12-10T15:10:00;85.63;;;41.93;;
19291;SDS011;9779;51.756;7.450;2022-12-10T15:12:31;79.67;;;39.33;;
19291;SDS011;9779;51.756;7.450;2022-12-10T15:15:06;73.67;;;36.63;;
19291;SDS011;9779;51.756;7.450;2022-12-10T15:17:38;72.80;;;37.87;;
19291;SDS011;9779;51.756;7.450;2022-12-10T15:20:10;86.87;;;40.30;;
19291;SDS011;9779;51.756;7.450;2022-12-10T15:22:48;84.17;;;38.30;;
19291;SDS011;9779;51.756;7.450;2022-12-10T15:25:31;83.00;;;39.20;;
19291;SDS011;9779;51.756;7.450;2022-12-10T15:28:20;79.27;;;38.37;;
19291;SDS011;9779;51.756;7.450;2022-12-10T15:30:51;73.93;;;37.67;;
19291;SDS011;9779;51.756;7.450;2022-12-10T15:33:21;77.27;;;38.20;;
19291;SDS011;9779;51.756;7.450;2022-12-10T15:35:53;83.93;;;41.83;;
19291;SDS011;9779;51.756;7.450;2022-12-10T15:38:21;83.13;;;42.47;;
19291;SDS011;9779;51.756;7.450;2022-12-10T15:40:48;76.17;;;38.23;;
19291;SDS011;9779;51.756;7.450;2022-12-10T15:45:50;73.17;;;37.10;;
19291;SDS011;9779;51.756;7.450;2022-12-10T15:48:15;83.97;;;38.57;;
19291;SDS011;9779;51.756;7.450;2022-12-10T15:50:42;76.93;;;38.50;;
19291;SDS011;9779;51.756;7.450;2022-12-10T15:53:11;91.83;;;44.63;;
19291;SDS011;9779;51.756;7.450;2022-12-10T15:55:37;89.33;;;43.07;;
19291;SDS011;9779;51.756;7.450;2022-12-10T15:58:04;89.60;;;42.67;;
19291;SDS011;9779;51.756;7.450;2022-12-10T16:00:37;77.10;;;38.43;;
19291;SDS011;9779;51.756;7.450;2022-12-10T16:03:05;82.80;;;39.87;;
19291;SDS011;9779;51.756;7.450;2022-12-10T16:05:36;78.77;;;37.83;;
19291;SDS011;9779;51.756;7.450;2022-12-10T16:08:11;103.33;;;39.93;;
19291;SDS011;9779;51.756;7.450;2022-12-10T16:10:54;80.23;;;38.80;;
19291;SDS011;9779;51.756;7.450;2022-12-10T16:13:22;81.13;;;39.03;;
19291;SDS011;9779;51.756;7.450;2022-12-10T16:15:55;86.90;;;42.00;;
19291;SDS011;9779;51.756;7.450;2022-12-10T16:18:24;82.63;;;39.10;;
19291;SDS011;9779;51.756;7.450;2022-12-10T16:20:51;86.80;;;38.07;;
19291;SDS011;9779;51.756;7.450;2022-12-10T16:23:16;75.07;;;39.00;;
19291;SDS011;9779;51.756;7.450;2022-12-10T16:25:43;91.07;;;40.77;;
19291;SDS011;9779;51.756;7.450;2022-12-10T16:28:19;84.60;;;41.07;;
19291;SDS011;9779;51.756;7.450;2022-12-10T16:30:46;81.93;;;39.10;;
19291;SDS011;9779;51.756;7.450;2022-12-10T16:33:14;77.03;;;38.00;;
19291;SDS011;9779;51.756;7.450;2022-12-10T16:35:42;88.03;;;41.40;;
19291;SDS011;9779;51.756;7.450;2022-12-10T16:38:08;92.90;;;40.90;;
19291;SDS011;9779;51.756;7.450;2022-12-10T16:40:34;82.50;;;42.00;;
19291;SDS011;9779;51.756;7.450;2022-12-10T16:43:00;82.83;;;41.00;;